createdAt,value
2017-07-18T00:00:32.070Z,1011.67
2017-07-18T00:01:32.046Z,1011.61
2017-07-18T00:02:32.026Z,1011.62
2017-07-18T00:03:32.004Z,1011.61
2017-07-18T00:04:31.982Z,1011.6
2017-07-18T00:05:31.960Z,1011.6
2017-07-18T00:06:31.939Z,1011.59
2017-07-18T00:07:31.918Z,1011.61
2017-07-18T00:08:31.895Z,1011.6
2017-07-18T00:09:31.874Z,1011.55
2017-07-18T00:10:31.853Z,1011.56
2017-07-18T00:11:31.830Z,1011.58
2017-07-18T00:12:31.808Z,1011.56
2017-07-18T00:13:31.787Z,1011.55
2017-07-18T00:14:31.766Z,1011.51
2017-07-18T00:15:31.743Z,1011.5
2017-07-18T00:16:31.722Z,1011.51
2017-07-18T00:17:31.700Z,1011.5
2017-07-18T00:18:31.679Z,1011.52
2017-07-18T00:19:31.656Z,1011.52
2017-07-18T00:20:31.634Z,1011.51
2017-07-18T00:21:31.612Z,1011.49
2017-07-18T00:22:31.591Z,1011.5
2017-07-18T00:23:31.568Z,1011.51
2017-07-18T00:24:31.548Z,1011.54
2017-07-18T00:25:31.525Z,1011.49
2017-07-18T00:26:31.505Z,1011.49
2017-07-18T00:27:31.483Z,1011.47
2017-07-18T00:28:31.460Z,1011.47
2017-07-18T00:29:31.438Z,1011.49
2017-07-18T00:30:31.418Z,1011.5
2017-07-18T00:31:31.395Z,1011.51
2017-07-18T00:32:31.374Z,1011.49
2017-07-18T00:33:31.352Z,1011.46
2017-07-18T00:34:31.329Z,1011.44
2017-07-18T00:35:31.306Z,1011.46
2017-07-18T00:36:31.286Z,1011.42
2017-07-18T00:37:31.264Z,1011.45
2017-07-18T00:38:31.241Z,1011.45
2017-07-18T00:39:31.219Z,1011.42
2017-07-18T00:40:31.199Z,1011.46
2017-07-18T00:41:31.175Z,1011.44
2017-07-18T00:42:31.154Z,1011.45
2017-07-18T00:43:31.132Z,1011.48
2017-07-18T00:44:31.110Z,1011.46
2017-07-18T00:45:31.087Z,1011.51
2017-07-18T00:46:31.114Z,1011.49
2017-07-18T00:47:31.044Z,1011.49
2017-07-18T00:48:31.022Z,1011.5
2017-07-18T00:49:30.999Z,1011.5
2017-07-18T00:50:30.978Z,1011.46
2017-07-18T00:51:30.955Z,1011.48
2017-07-18T00:52:30.934Z,1011.5
2017-07-18T00:53:30.914Z,1011.47
2017-07-18T00:54:30.889Z,1011.46
2017-07-18T00:55:30.866Z,1011.5
2017-07-18T00:56:30.846Z,1011.49
2017-07-18T00:57:30.824Z,1011.52
2017-07-18T00:58:30.800Z,1011.48
2017-07-18T00:59:30.779Z,1011.51
2017-07-18T01:00:30.756Z,1011.48
2017-07-18T01:01:30.733Z,1011.51
2017-07-18T01:02:30.713Z,1011.46
2017-07-18T01:03:30.688Z,1011.49
2017-07-18T01:04:30.667Z,1011.44
2017-07-18T01:05:30.645Z,1011.46
2017-07-18T01:06:30.623Z,1011.46
2017-07-18T01:07:30.601Z,1011.49
2017-07-18T01:08:30.578Z,1011.45
2017-07-18T01:09:30.556Z,1011.48
2017-07-18T01:10:30.535Z,1011.51
2017-07-18T01:11:30.510Z,1011.5
2017-07-18T01:12:30.489Z,1011.52
2017-07-18T01:13:30.466Z,1011.52
2017-07-18T01:14:30.443Z,1011.52
2017-07-18T01:15:30.422Z,1011.58
2017-07-18T01:16:30.400Z,1011.59
2017-07-18T01:17:30.378Z,1011.55
2017-07-18T01:18:30.354Z,1011.57
2017-07-18T01:19:30.337Z,1011.59
2017-07-18T01:20:30.311Z,1011.57
2017-07-18T01:21:30.288Z,1011.58
2017-07-18T01:22:30.265Z,1011.58
2017-07-18T01:23:30.252Z,1011.59
2017-07-18T01:24:30.222Z,1011.55
2017-07-18T01:25:30.197Z,1011.63
2017-07-18T01:26:30.176Z,1011.62
2017-07-18T01:27:30.152Z,1011.6
2017-07-18T01:28:30.137Z,1011.6
2017-07-18T01:29:30.108Z,1011.54
2017-07-18T01:30:30.094Z,1011.55
2017-07-18T01:31:30.067Z,1011.55
2017-07-18T01:32:30.042Z,1011.5
2017-07-18T01:33:30.018Z,1011.51
2017-07-18T01:34:29.996Z,1011.51
2017-07-18T01:35:29.973Z,1011.47
2017-07-18T01:36:29.951Z,1011.44
2017-07-18T01:37:29.927Z,1011.45
2017-07-18T01:38:29.909Z,1011.42
2017-07-18T01:39:29.883Z,1011.42
2017-07-18T01:40:29.860Z,1011.41
2017-07-18T01:41:29.839Z,1011.39
2017-07-18T01:42:29.816Z,1011.35
2017-07-18T01:43:29.792Z,1011.34
2017-07-18T01:44:29.770Z,1011.31
2017-07-18T01:45:29.746Z,1011.32
2017-07-18T01:46:29.724Z,1011.31
2017-07-18T01:47:29.701Z,1011.28
2017-07-18T01:48:29.681Z,1011.29
2017-07-18T01:49:29.656Z,1011.3
2017-07-18T01:50:29.633Z,1011.29
2017-07-18T01:51:29.611Z,1011.31
2017-07-18T01:52:29.588Z,1011.28
2017-07-18T01:53:29.565Z,1011.26
2017-07-18T01:54:29.544Z,1011.29
2017-07-18T01:55:29.520Z,1011.27
2017-07-18T01:56:29.499Z,1011.23
2017-07-18T01:57:29.477Z,1011.26
2017-07-18T01:58:29.453Z,1011.2
2017-07-18T01:59:29.429Z,1011.25
2017-07-18T02:00:29.408Z,1011.29
2017-07-18T02:01:29.385Z,1011.25
2017-07-18T02:02:29.363Z,1011.26
2017-07-18T02:03:29.339Z,1011.24
2017-07-18T02:04:29.315Z,1011.22
2017-07-18T02:05:29.295Z,1011.2
2017-07-18T02:06:29.271Z,1011.25
2017-07-18T02:07:29.247Z,1011.19
2017-07-18T02:08:29.226Z,1011.22
2017-07-18T02:09:29.201Z,1011.2
2017-07-18T02:10:29.185Z,1011.21
2017-07-18T02:11:29.157Z,1011.21
2017-07-18T02:12:29.134Z,1011.19
2017-07-18T02:13:29.110Z,1011.18
2017-07-18T02:14:29.088Z,1011.14
2017-07-18T02:15:29.065Z,1011.16
2017-07-18T02:16:29.043Z,1011.18
2017-07-18T02:17:29.020Z,1011.15
2017-07-18T02:18:28.997Z,1011.17
2017-07-18T02:19:28.974Z,1011.16
2017-07-18T02:20:28.950Z,1011.13
2017-07-18T02:21:28.931Z,1011.18
2017-07-18T02:22:28.905Z,1011.12
2017-07-18T02:23:28.882Z,1011.14
2017-07-18T02:24:28.860Z,1011.08
2017-07-18T02:25:28.836Z,1011.08
2017-07-18T02:26:28.813Z,1011.15
2017-07-18T02:27:28.790Z,1011.08
2017-07-18T02:28:28.766Z,1011.09
2017-07-18T02:29:28.744Z,1011.13
2017-07-18T02:30:28.722Z,1011.12
2017-07-18T02:31:28.698Z,1011.14
2017-07-18T02:32:28.675Z,1011.12
2017-07-18T02:33:28.652Z,1011.09
2017-07-18T02:34:28.681Z,1011.1
2017-07-18T02:35:28.605Z,1011.06
2017-07-18T02:36:28.583Z,1011.1
2017-07-18T02:37:28.561Z,1011.1
2017-07-18T02:38:28.538Z,1011.11
2017-07-18T02:39:28.515Z,1011.11
2017-07-18T02:40:28.490Z,1011.09
2017-07-18T02:41:28.468Z,1011.1
2017-07-18T02:42:28.444Z,1011.08
2017-07-18T02:43:28.422Z,1011.05
2017-07-18T02:44:28.400Z,1011.1
2017-07-18T02:45:28.376Z,1011.06
2017-07-18T02:46:28.352Z,1011.05
2017-07-18T02:47:28.339Z,1011.07
2017-07-18T02:48:28.307Z,1011.08
2017-07-18T02:49:28.282Z,1011.08
2017-07-18T02:50:28.260Z,1011.07
2017-07-18T02:51:28.236Z,1011.01
2017-07-18T02:52:28.215Z,1010.96
2017-07-18T02:53:28.188Z,1011
2017-07-18T02:54:28.168Z,1011.02
2017-07-18T02:55:28.144Z,1011.03
2017-07-18T02:56:28.121Z,1011
2017-07-18T02:57:28.097Z,1011.03
2017-07-18T02:58:28.078Z,1011.03
2017-07-18T02:59:28.051Z,1011.05
2017-07-18T03:00:28.029Z,1011.03
2017-07-18T03:01:28.004Z,1011.02
2017-07-18T03:02:27.983Z,1010.98
2017-07-18T03:03:27.958Z,1011
2017-07-18T03:04:27.935Z,1011.02
2017-07-18T03:05:27.913Z,1011
2017-07-18T03:06:27.891Z,1011
2017-07-18T03:07:27.868Z,1011.01
2017-07-18T03:08:27.847Z,1010.96
2017-07-18T03:09:27.818Z,1011
2017-07-18T03:10:27.797Z,1010.97
2017-07-18T03:11:27.771Z,1010.98
2017-07-18T03:12:27.749Z,1010.97
2017-07-18T03:13:27.725Z,1010.97
2017-07-18T03:14:27.724Z,1010.95
2017-07-18T03:15:27.679Z,1010.96
2017-07-18T03:16:27.656Z,1010.96
2017-07-18T03:17:27.632Z,1010.98
2017-07-18T03:18:27.609Z,1010.96
2017-07-18T03:19:27.584Z,1010.96
2017-07-18T03:20:27.563Z,1010.92
2017-07-18T03:21:27.539Z,1010.91
2017-07-18T03:22:27.515Z,1010.95
2017-07-18T03:23:27.491Z,1010.95
2017-07-18T03:24:27.470Z,1010.98
2017-07-18T03:25:27.445Z,1010.93
2017-07-18T03:26:27.428Z,1010.97
2017-07-18T03:27:27.397Z,1010.94
2017-07-18T03:28:27.375Z,1010.96
2017-07-18T03:29:27.356Z,1010.95
2017-07-18T03:30:27.328Z,1010.98
2017-07-18T03:31:27.303Z,1010.95
2017-07-18T03:32:27.281Z,1010.96
2017-07-18T03:33:27.257Z,1010.93
2017-07-18T03:34:27.234Z,1010.93
2017-07-18T03:35:27.211Z,1010.97
2017-07-18T03:36:27.188Z,1010.99
2017-07-18T03:37:27.161Z,1010.96
2017-07-18T03:38:27.141Z,1010.95
2017-07-18T03:39:27.117Z,1010.94
2017-07-18T03:40:27.095Z,1010.92
2017-07-18T03:41:27.070Z,1010.9
2017-07-18T03:42:27.048Z,1010.91
2017-07-18T03:43:27.024Z,1010.9
2017-07-18T03:44:27.000Z,1010.91
2017-07-18T03:45:26.974Z,1010.93
2017-07-18T03:46:26.957Z,1010.93
2017-07-18T03:47:26.930Z,1010.91
2017-07-18T03:48:26.906Z,1010.92
2017-07-18T03:49:26.881Z,1010.97
2017-07-18T03:50:26.859Z,1010.99
2017-07-18T03:51:26.834Z,1010.96
2017-07-18T03:52:26.813Z,1011.01
2017-07-18T03:53:26.787Z,1011
2017-07-18T03:54:26.764Z,1010.95
2017-07-18T03:55:26.738Z,1010.99
2017-07-18T03:56:26.717Z,1010.99
2017-07-18T03:57:26.694Z,1010.97
2017-07-18T03:58:26.671Z,1010.97
2017-07-18T03:59:26.645Z,1011
2017-07-18T04:00:26.622Z,1011.02
2017-07-18T04:01:26.599Z,1011.01
2017-07-18T04:02:26.576Z,1011.01
2017-07-18T04:03:26.552Z,1011.03
2017-07-18T04:04:26.528Z,1011
2017-07-18T04:05:26.505Z,1010.99
2017-07-18T04:06:26.484Z,1010.98
2017-07-18T04:07:26.457Z,1011.02
2017-07-18T04:08:26.435Z,1011.02
2017-07-18T04:09:26.412Z,1011.04
2017-07-18T04:10:26.387Z,1011.05
2017-07-18T04:11:26.364Z,1011.02
2017-07-18T04:12:26.340Z,1011.04
2017-07-18T04:13:26.317Z,1011.04
2017-07-18T04:14:26.294Z,1011.02
2017-07-18T04:15:26.269Z,1011.02
2017-07-18T04:16:26.248Z,1010.97
2017-07-18T04:17:26.221Z,1010.99
2017-07-18T04:18:26.200Z,1011
2017-07-18T04:19:26.176Z,1011.03
2017-07-18T04:20:26.153Z,1011.04
2017-07-18T04:21:26.128Z,1011.08
2017-07-18T04:22:26.105Z,1011.09
2017-07-18T04:23:26.082Z,1011.13
2017-07-18T04:24:26.058Z,1011.12
2017-07-18T04:25:26.034Z,1011.1
2017-07-18T04:26:26.011Z,1011.15
2017-07-18T04:27:25.990Z,1011.15
2017-07-18T04:28:25.969Z,1011.14
2017-07-18T04:29:25.940Z,1011.15
2017-07-18T04:30:25.918Z,1011.17
2017-07-18T04:31:25.894Z,1011.15
2017-07-18T04:32:25.872Z,1011.16
2017-07-18T04:33:25.847Z,1011.15
2017-07-18T04:34:25.824Z,1011.15
2017-07-18T04:35:25.800Z,1011.15
2017-07-18T04:36:25.777Z,1011.15
2017-07-18T04:37:25.754Z,1011.15
2017-07-18T04:38:25.732Z,1011.13
2017-07-18T04:39:25.706Z,1011.08
2017-07-18T04:40:25.685Z,1011.09
2017-07-18T04:41:25.661Z,1011.05
2017-07-18T04:42:25.655Z,1011.07
2017-07-18T04:43:25.613Z,1011.07
2017-07-18T04:44:25.591Z,1011.04
2017-07-18T04:45:25.568Z,1011.03
2017-07-18T04:46:25.544Z,1011.04
2017-07-18T04:47:25.621Z,1011.03
2017-07-18T04:48:25.498Z,1011.02
2017-07-18T04:49:25.475Z,1011.02
2017-07-18T04:50:25.452Z,1011.02
2017-07-18T04:51:25.430Z,1011.05
2017-07-18T04:52:25.412Z,1011
2017-07-18T04:53:25.383Z,1011.01
2017-07-18T04:54:25.360Z,1011
2017-07-18T04:55:25.337Z,1011.01
2017-07-18T04:56:25.315Z,1011.06
2017-07-18T04:57:25.290Z,1011.01
2017-07-18T04:58:25.267Z,1011.02
2017-07-18T04:59:25.245Z,1011
2017-07-18T05:00:25.221Z,1010.97
2017-07-18T05:01:25.197Z,1011.01
2017-07-18T05:02:25.175Z,1010.99
2017-07-18T05:03:25.152Z,1010.98
2017-07-18T05:04:25.130Z,1010.97
2017-07-18T05:05:25.107Z,1010.98
2017-07-18T05:06:25.085Z,1010.97
2017-07-18T05:07:25.062Z,1010.97
2017-07-18T05:08:25.040Z,1010.97
2017-07-18T05:09:25.015Z,1010.95
2017-07-18T05:10:25.121Z,1010.98
2017-07-18T05:11:24.971Z,1010.98
2017-07-18T05:12:24.948Z,1010.98
2017-07-18T05:13:24.925Z,1011
2017-07-18T05:14:24.902Z,1010.98
2017-07-18T05:15:24.880Z,1010.97
2017-07-18T05:16:24.858Z,1010.98
2017-07-18T05:17:24.835Z,1010.96
2017-07-18T05:18:24.814Z,1011.02
2017-07-18T05:19:24.790Z,1011
2017-07-18T05:20:24.769Z,1011.02
2017-07-18T05:21:24.746Z,1010.99
2017-07-18T05:22:24.725Z,1011
2017-07-18T05:23:24.700Z,1011.05
2017-07-18T05:24:24.683Z,1011
2017-07-18T05:25:24.656Z,1011.05
2017-07-18T05:26:24.634Z,1011.03
2017-07-18T05:27:24.611Z,1011.03
2017-07-18T05:28:24.593Z,1011.04
2017-07-18T05:29:24.568Z,1011.05
2017-07-18T05:30:24.546Z,1011.03
2017-07-18T05:31:24.522Z,1011.02
2017-07-18T05:32:24.511Z,1011.02
2017-07-18T05:33:24.479Z,1011.03
2017-07-18T05:34:24.454Z,1011
2017-07-18T05:35:24.433Z,1011.02
2017-07-18T05:36:24.411Z,1010.99
2017-07-18T05:37:24.392Z,1011.02
2017-07-18T05:38:24.370Z,1011
2017-07-18T05:39:24.345Z,1010.99
2017-07-18T05:40:24.323Z,1010.98
2017-07-18T05:41:24.303Z,1011.01
2017-07-18T05:42:24.283Z,1010.93
2017-07-18T05:43:24.260Z,1010.9
2017-07-18T05:44:24.238Z,1010.91
2017-07-18T05:45:24.216Z,1010.89
2017-07-18T05:46:24.197Z,1010.89
2017-07-18T05:47:24.175Z,1010.9
2017-07-18T05:48:24.153Z,1010.94
2017-07-18T05:49:24.132Z,1010.88
2017-07-18T05:50:24.114Z,1010.91
2017-07-18T05:51:24.092Z,1010.92
2017-07-18T05:52:24.072Z,1010.92
2017-07-18T05:53:24.051Z,1010.95
2017-07-18T05:54:24.307Z,1010.97
2017-07-18T05:55:24.228Z,1010.95
2017-07-18T05:56:24.068Z,1010.94
2017-07-18T05:57:23.973Z,1010.91
2017-07-18T05:58:23.951Z,1010.9
2017-07-18T05:59:23.955Z,1010.93
2017-07-18T06:00:23.915Z,1010.89
2017-07-18T06:01:23.893Z,1010.9
2017-07-18T06:02:23.883Z,1010.9
2017-07-18T06:03:23.857Z,1010.93
2017-07-18T06:04:23.839Z,1010.92
2017-07-18T06:05:23.826Z,1010.97
2017-07-18T06:06:23.801Z,1010.98
2017-07-18T06:07:23.782Z,1011
2017-07-18T06:08:23.764Z,1011
2017-07-18T06:09:23.745Z,1010.98
2017-07-18T06:10:23.725Z,1010.99
2017-07-18T06:11:23.708Z,1011.01
2017-07-18T06:12:23.690Z,1010.94
2017-07-18T06:13:23.672Z,1010.97
2017-07-18T06:14:23.654Z,1010.93
2017-07-18T06:15:23.638Z,1010.95
2017-07-18T06:16:23.621Z,1010.91
2017-07-18T06:17:23.602Z,1010.93
2017-07-18T06:18:23.583Z,1010.9
2017-07-18T06:19:23.567Z,1010.89
2017-07-18T06:20:23.552Z,1010.92
2017-07-18T06:21:23.533Z,1010.93
2017-07-18T06:22:23.517Z,1010.91
2017-07-18T06:23:23.501Z,1010.88
2017-07-18T06:24:23.484Z,1010.9
2017-07-18T06:25:23.467Z,1010.88
2017-07-18T06:26:23.451Z,1010.89
2017-07-18T06:27:23.434Z,1010.83
2017-07-18T06:28:23.419Z,1010.83
2017-07-18T06:29:23.402Z,1010.82
2017-07-18T06:30:23.388Z,1010.79
2017-07-18T06:31:23.371Z,1010.83
2017-07-18T06:32:23.355Z,1010.81
2017-07-18T06:33:23.340Z,1010.84
2017-07-18T06:34:23.373Z,1010.84
2017-07-18T06:35:23.309Z,1010.8
2017-07-18T06:36:23.294Z,1010.79
2017-07-18T06:37:23.277Z,1010.8
2017-07-18T06:38:23.264Z,1010.77
2017-07-18T06:39:23.248Z,1010.77
2017-07-18T06:40:23.232Z,1010.78
2017-07-18T06:41:23.218Z,1010.79
2017-07-18T06:42:23.205Z,1010.73
2017-07-18T06:43:23.189Z,1010.82
2017-07-18T06:44:23.175Z,1010.85
2017-07-18T06:45:23.158Z,1010.84
2017-07-18T06:46:23.146Z,1010.81
2017-07-18T06:47:23.138Z,1010.81
2017-07-18T06:48:23.118Z,1010.8
2017-07-18T06:49:23.104Z,1010.77
2017-07-18T06:50:23.090Z,1010.77
2017-07-18T06:51:23.076Z,1010.77
2017-07-18T06:52:23.062Z,1010.75
2017-07-18T06:53:23.165Z,1010.78
2017-07-18T06:54:23.605Z,1010.76
2017-07-18T06:55:23.537Z,1010.77
2017-07-18T06:56:23.572Z,1010.74
2017-07-18T06:57:23.797Z,1010.75
2017-07-18T06:58:23.081Z,1010.75
2017-07-18T06:59:22.968Z,1010.73
2017-07-18T07:00:22.959Z,1010.74
2017-07-18T07:01:22.941Z,1010.71
2017-07-18T07:02:22.930Z,1010.71
2017-07-18T07:03:22.916Z,1010.72
2017-07-18T07:04:22.904Z,1010.8
2017-07-18T07:05:22.889Z,1010.7
2017-07-18T07:06:22.878Z,1010.66
2017-07-18T07:07:22.864Z,1010.68
2017-07-18T07:08:22.853Z,1010.65
2017-07-18T07:09:22.839Z,1010.66
2017-07-18T07:10:22.827Z,1010.66
2017-07-18T07:11:22.814Z,1010.67
2017-07-18T07:12:23.059Z,1010.66
2017-07-18T07:13:23.198Z,1010.67
2017-07-18T07:14:22.956Z,1010.67
2017-07-18T07:15:22.771Z,1010.64
2017-07-18T07:16:22.753Z,1010.65
2017-07-18T07:17:22.743Z,1010.58
2017-07-18T07:18:22.729Z,1010.55
2017-07-18T07:19:22.716Z,1010.55
2017-07-18T07:20:22.705Z,1010.51
2017-07-18T07:21:22.742Z,1010.52
2017-07-18T07:22:22.681Z,1010.52
2017-07-18T07:23:22.667Z,1010.52
2017-07-18T07:24:22.657Z,1010.56
2017-07-18T07:25:22.644Z,1010.49
2017-07-18T07:26:22.633Z,1010.46
2017-07-18T07:27:22.622Z,1010.52
2017-07-18T07:28:22.610Z,1010.5
2017-07-18T07:29:22.597Z,1010.51
2017-07-18T07:30:22.587Z,1010.52
2017-07-18T07:31:22.575Z,1010.51
2017-07-18T07:32:22.563Z,1010.51
2017-07-18T07:33:22.552Z,1010.48
2017-07-18T07:34:22.539Z,1010.52
2017-07-18T07:35:22.526Z,1010.51
2017-07-18T07:36:22.517Z,1010.49
2017-07-18T07:37:22.506Z,1010.49
2017-07-18T07:38:22.492Z,1010.5
2017-07-18T07:39:22.481Z,1010.48
2017-07-18T07:40:22.470Z,1010.49
2017-07-18T07:41:22.459Z,1010.52
2017-07-18T07:42:22.447Z,1010.49
2017-07-18T07:43:22.435Z,1010.46
2017-07-18T07:44:22.425Z,1010.45
2017-07-18T07:45:22.411Z,1010.48
2017-07-18T07:46:22.401Z,1010.5
2017-07-18T07:47:22.392Z,1010.47
2017-07-18T07:48:22.380Z,1010.47
2017-07-18T07:49:22.368Z,1010.41
2017-07-18T07:50:22.359Z,1010.43
2017-07-18T07:51:22.349Z,1010.44
2017-07-18T07:52:22.337Z,1010.44
2017-07-18T07:53:22.324Z,1010.42
2017-07-18T07:54:22.315Z,1010.4
2017-07-18T07:55:22.305Z,1010.44
2017-07-18T07:56:22.293Z,1010.44
2017-07-18T07:57:22.285Z,1010.48
2017-07-18T07:58:22.274Z,1010.49
2017-07-18T07:59:22.264Z,1010.46
2017-07-18T08:00:22.253Z,1010.48
2017-07-18T08:01:22.241Z,1010.49
2017-07-18T08:02:22.233Z,1010.48
2017-07-18T08:03:22.335Z,1010.45
2017-07-18T08:04:22.213Z,1010.44
2017-07-18T08:05:22.204Z,1010.51
2017-07-18T08:06:22.193Z,1010.44
2017-07-18T08:07:22.184Z,1010.48
2017-07-18T08:08:22.208Z,1010.43
2017-07-18T08:09:22.163Z,1010.45
2017-07-18T08:10:22.255Z,1010.42
2017-07-18T08:11:22.144Z,1010.46
2017-07-18T08:12:22.284Z,1010.43
2017-07-18T08:13:22.223Z,1010.45
2017-07-18T08:14:22.117Z,1010.41
2017-07-18T08:15:22.106Z,1010.39
2017-07-18T08:16:22.096Z,1010.37
2017-07-18T08:17:22.088Z,1010.4
2017-07-18T08:18:22.077Z,1010.37
2017-07-18T08:19:22.069Z,1010.33
2017-07-18T08:20:22.060Z,1010.32
2017-07-18T08:21:22.051Z,1010.32
2017-07-18T08:22:22.041Z,1010.3
2017-07-18T08:23:22.031Z,1010.3
2017-07-18T08:24:22.023Z,1010.27
2017-07-18T08:25:22.019Z,1010.27
2017-07-18T08:26:22.010Z,1010.27
2017-07-18T08:27:21.998Z,1010.24
2017-07-18T08:28:21.991Z,1010.22
2017-07-18T08:29:21.981Z,1010.3
2017-07-18T08:30:21.978Z,1010.27
2017-07-18T08:31:21.965Z,1010.26
2017-07-18T08:32:21.958Z,1010.22
2017-07-18T08:33:21.950Z,1010.24
2017-07-18T08:34:21.939Z,1010.26
2017-07-18T08:35:21.933Z,1010.24
2017-07-18T08:36:21.925Z,1010.19
2017-07-18T08:37:21.917Z,1010.24
2017-07-18T08:38:21.910Z,1010.24
2017-07-18T08:39:21.903Z,1010.23
2017-07-18T08:40:21.894Z,1010.24
2017-07-18T08:41:21.886Z,1010.25
2017-07-18T08:42:21.879Z,1010.22
2017-07-18T08:43:21.872Z,1010.25
2017-07-18T08:44:21.865Z,1010.19
2017-07-18T08:45:21.857Z,1010.18
2017-07-18T08:46:21.851Z,1010.17
2017-07-18T08:47:21.843Z,1010.2
2017-07-18T08:48:21.847Z,1010.15
2017-07-18T08:49:21.829Z,1010.13
2017-07-18T08:50:21.823Z,1010.16
2017-07-18T08:51:21.814Z,1010.14
2017-07-18T08:52:21.808Z,1010.13
2017-07-18T08:53:21.801Z,1010.08
2017-07-18T08:54:21.797Z,1010.09
2017-07-18T08:55:21.790Z,1010.07
2017-07-18T08:56:21.780Z,1010.07
2017-07-18T08:57:21.869Z,1010.15
2017-07-18T08:58:21.883Z,1010.08
2017-07-18T08:59:21.925Z,1010.14
2017-07-18T09:00:21.872Z,1010.09
2017-07-18T09:01:21.752Z,1010.09
2017-07-18T09:02:21.742Z,1010.09
2017-07-18T09:03:22.007Z,1010.05
2017-07-18T09:04:21.730Z,1010
2017-07-18T09:05:21.725Z,1010.04
2017-07-18T09:06:21.868Z,1009.99
2017-07-18T09:07:21.713Z,1009.98
2017-07-18T09:08:21.708Z,1009.98
2017-07-18T09:09:21.792Z,1009.96
2017-07-18T09:10:21.697Z,1009.95
2017-07-18T09:11:21.689Z,1009.94
2017-07-18T09:12:21.684Z,1009.96
2017-07-18T09:13:21.679Z,1009.89
2017-07-18T09:14:21.683Z,1009.96
2017-07-18T09:15:21.804Z,1009.89
2017-07-18T09:16:21.664Z,1009.89
2017-07-18T09:17:21.656Z,1009.91
2017-07-18T09:18:21.650Z,1009.9
2017-07-18T09:19:21.646Z,1009.87
2017-07-18T09:20:21.640Z,1009.87
2017-07-18T09:21:21.635Z,1009.88
2017-07-18T09:22:21.629Z,1009.86
2017-07-18T09:23:21.622Z,1009.83
2017-07-18T09:24:21.616Z,1009.85
2017-07-18T09:25:21.608Z,1009.86
2017-07-18T09:26:21.601Z,1009.85
2017-07-18T09:27:21.596Z,1009.88
2017-07-18T09:28:21.587Z,1009.84
2017-07-18T09:29:21.579Z,1009.82
2017-07-18T09:30:21.572Z,1009.78
2017-07-18T09:31:21.564Z,1009.78
2017-07-18T09:32:21.558Z,1009.82
2017-07-18T09:33:21.552Z,1009.83
2017-07-18T09:34:21.545Z,1009.8
2017-07-18T09:35:21.537Z,1009.75
2017-07-18T09:36:21.531Z,1009.7
2017-07-18T09:37:21.523Z,1009.74
2017-07-18T09:38:21.516Z,1009.73
2017-07-18T09:39:21.509Z,1009.76
2017-07-18T09:40:21.502Z,1009.76
2017-07-18T09:41:21.496Z,1009.71
2017-07-18T09:42:21.488Z,1009.67
2017-07-18T09:43:21.481Z,1009.64
2017-07-18T09:44:21.474Z,1009.62
2017-07-18T09:45:21.468Z,1009.67
2017-07-18T09:46:21.461Z,1009.59
2017-07-18T09:47:21.456Z,1009.61
2017-07-18T09:48:21.449Z,1009.6
2017-07-18T09:49:21.443Z,1009.57
2017-07-18T09:50:21.438Z,1009.6
2017-07-18T09:51:21.432Z,1009.61
2017-07-18T09:52:21.428Z,1009.66
2017-07-18T09:53:21.422Z,1009.59
2017-07-18T09:54:21.416Z,1009.59
2017-07-18T09:55:21.412Z,1009.56
2017-07-18T09:56:21.407Z,1009.58
2017-07-18T09:57:21.401Z,1009.56
2017-07-18T09:58:21.397Z,1009.55
2017-07-18T09:59:21.392Z,1009.5
2017-07-18T10:00:21.388Z,1009.51
2017-07-18T10:01:21.381Z,1009.46
2017-07-18T10:02:21.427Z,1009.53
2017-07-18T10:03:21.375Z,1009.55
2017-07-18T10:04:21.369Z,1009.51
2017-07-18T10:05:21.365Z,1009.52
2017-07-18T10:06:21.361Z,1009.52
2017-07-18T10:07:21.356Z,1009.5
2017-07-18T10:08:21.351Z,1009.46
2017-07-18T10:09:21.347Z,1009.45
2017-07-18T10:10:21.343Z,1009.36
2017-07-18T10:11:21.338Z,1009.41
2017-07-18T10:12:21.335Z,1009.37
2017-07-18T10:13:21.331Z,1009.4
2017-07-18T10:14:21.326Z,1009.34
2017-07-18T10:15:21.322Z,1009.38
2017-07-18T10:16:21.326Z,1009.41
2017-07-18T10:17:21.314Z,1009.43
2017-07-18T10:18:21.309Z,1009.4
2017-07-18T10:19:21.304Z,1009.35
2017-07-18T10:20:21.300Z,1009.37
2017-07-18T10:21:21.297Z,1009.36
2017-07-18T10:22:21.291Z,1009.37
2017-07-18T10:23:21.288Z,1009.33
2017-07-18T10:24:21.284Z,1009.35
2017-07-18T10:25:21.281Z,1009.32
2017-07-18T10:26:21.290Z,1009.25
2017-07-18T10:27:21.273Z,1009.2
2017-07-18T10:28:21.268Z,1009.32
2017-07-18T10:29:21.264Z,1009.32
2017-07-18T10:30:21.259Z,1009.36
2017-07-18T10:31:21.255Z,1009.34
2017-07-18T10:32:21.250Z,1009.31
2017-07-18T10:33:21.246Z,1009.3
2017-07-18T10:34:21.241Z,1009.27
2017-07-18T10:35:21.235Z,1009.28
2017-07-18T10:36:21.229Z,1009.21
2017-07-18T10:37:21.223Z,1009.19
2017-07-18T10:38:21.219Z,1009.18
2017-07-18T10:39:21.213Z,1009.17
2017-07-18T10:40:21.207Z,1009.21
2017-07-18T10:41:21.201Z,1009.2
2017-07-18T10:42:21.216Z,1009.14
2017-07-18T10:43:21.190Z,1009.09
2017-07-18T10:44:21.190Z,1009.09
2017-07-18T10:45:21.177Z,1009.13
2017-07-18T10:46:21.173Z,1009.14
2017-07-18T10:47:21.168Z,1009.08
2017-07-18T10:48:21.161Z,1009.05
2017-07-18T10:49:21.156Z,1009.1
2017-07-18T10:50:21.152Z,1009.1
2017-07-18T10:51:21.147Z,1009.06
2017-07-18T10:52:21.144Z,1009.04
2017-07-18T10:53:21.138Z,1009.05
2017-07-18T10:54:21.135Z,1009.01
2017-07-18T10:55:21.129Z,1009.01
2017-07-18T10:56:21.126Z,1009.14
2017-07-18T10:57:21.121Z,1009.07
2017-07-18T10:58:21.118Z,1009.08
2017-07-18T10:59:21.317Z,1008.99
2017-07-18T11:00:21.112Z,1009.05
2017-07-18T11:01:21.109Z,1008.97
2017-07-18T11:02:21.106Z,1008.98
2017-07-18T11:03:21.101Z,1008.97
2017-07-18T11:04:21.098Z,1008.91
2017-07-18T11:05:21.095Z,1008.94
2017-07-18T11:06:21.092Z,1008.9
2017-07-18T11:07:21.089Z,1008.93
2017-07-18T11:08:21.087Z,1008.94
2017-07-18T11:09:21.084Z,1008.9
2017-07-18T11:10:21.148Z,1008.87
2017-07-18T11:11:21.080Z,1008.92
2017-07-18T11:12:21.076Z,1008.89
2017-07-18T11:13:21.074Z,1008.92
2017-07-18T11:14:21.071Z,1008.88
2017-07-18T11:15:21.069Z,1008.83
2017-07-18T11:16:21.066Z,1008.88
2017-07-18T11:17:21.064Z,1008.84
2017-07-18T11:18:21.062Z,1008.85
2017-07-18T11:19:21.057Z,1008.89
2017-07-18T11:20:21.057Z,1008.8
2017-07-18T11:21:21.055Z,1008.79
2017-07-18T11:22:21.052Z,1008.73
2017-07-18T11:23:21.050Z,1008.71
2017-07-18T11:24:21.048Z,1008.69
2017-07-18T11:25:21.045Z,1008.63
2017-07-18T11:26:21.042Z,1008.66
2017-07-18T11:27:21.040Z,1008.67
2017-07-18T11:28:21.039Z,1008.62
2017-07-18T11:29:21.037Z,1008.59
2017-07-18T11:30:21.033Z,1008.6
2017-07-18T11:31:21.032Z,1008.63
2017-07-18T11:32:21.029Z,1008.63
2017-07-18T11:33:21.027Z,1008.64
2017-07-18T11:34:21.027Z,1008.62
2017-07-18T11:35:21.025Z,1008.55
2017-07-18T11:36:21.023Z,1008.53
2017-07-18T11:37:21.021Z,1008.56
2017-07-18T11:38:21.019Z,1008.58
2017-07-18T11:39:21.017Z,1008.57
2017-07-18T11:40:21.017Z,1008.53
2017-07-18T11:41:21.015Z,1008.5
2017-07-18T11:42:21.013Z,1008.48
2017-07-18T11:43:21.012Z,1008.52
2017-07-18T11:44:21.011Z,1008.5
2017-07-18T11:45:21.008Z,1008.52
2017-07-18T11:46:21.006Z,1008.48
2017-07-18T11:47:21.006Z,1008.5
2017-07-18T11:48:21.004Z,1008.5
2017-07-18T11:49:21.004Z,1008.51
2017-07-18T11:50:21.000Z,1008.43
2017-07-18T11:51:21.000Z,1008.41
2017-07-18T11:52:20.998Z,1008.44
2017-07-18T11:53:20.997Z,1008.43
2017-07-18T11:54:20.994Z,1008.45
2017-07-18T11:55:20.994Z,1008.4
2017-07-18T11:56:20.994Z,1008.38
2017-07-18T11:57:20.993Z,1008.36
2017-07-18T11:58:20.991Z,1008.3
2017-07-18T11:59:20.990Z,1008.32
2017-07-18T12:00:20.991Z,1008.32
2017-07-18T12:01:20.987Z,1008.3
2017-07-18T12:02:20.988Z,1008.27
2017-07-18T12:03:20.986Z,1008.27
2017-07-18T12:04:20.986Z,1008.26
2017-07-18T12:05:20.983Z,1008.29
2017-07-18T12:06:20.984Z,1008.23
2017-07-18T12:07:20.984Z,1008.21
2017-07-18T12:08:20.982Z,1008.26
2017-07-18T12:09:20.980Z,1008.21
2017-07-18T12:10:20.979Z,1008.16